KERV/ERV METAR and TAF weather

Enter ICAO airport designator
Station Type Date Time Source
KERV METAR 2021/02/28 02:55 UTC NOAA

KERV 280255Z AUTO 14005KT 5SM BR BKN013 OVC021 18/17 A2986 RMK AO2 T01800165


Station Type Date Time Source
KERV Decoded METAR 2021/02/28 02:55 UTC NOAA

Kerrville, Kerrville Municipal Airport/Louis Schreiner Field, TX, United States (KERV) 29-58N 099-05W
Feb 27, 2021 - 09:55 PM EST / 2021.02.28 0255 UTC
Wind: from the SE (140 degrees) at 6 MPH (5 KT):0
Visibility: 5 mile(s):0
Sky conditions: overcast
Weather: mist
Temperature: 64.4 F (18.0 C)
Dew Point: 61.7 F (16.5 C)
Relative Humidity: 90%
Pressure (altimeter): 29.86 in. Hg (1011 hPa)
ob: KERV 280255Z AUTO 14005KT 5SM BR BKN013 OVC021 18/17 A2986 RMK AO2 T01800165
cycle: 3

Station Type Date Time Source
KERV TAF UTC NOAA

Error!

Example: see airport list